Time;durP1;ratioP1;P1;durP2;ratioP2;P2;SDS_P1;SDS_P2;PMS_P1;PMS_P2;Temp;Humidity;BMP_temperature;BMP_pressure;BME280_temperature;BME280_humidity;BME280_pressure;Samples;Min_cycle;Max_cycle;Signal;HPM_P1;HPM_P2
2021/07/18 00:00:33;;;;;;;4.95;3.15;;;;;;;26.08;35.26;98073.16;5017804;28;20481;-59
2021/07/18 00:02:58;;;;;;;5.03;2.95;;;;;;;26.06;34.77;98045.16;5037970;28;20043;-59
2021/07/18 00:05:24;;;;;;;5.43;4.20;;;;;;;26.45;34.15;98076.78;5020169;28;20647;-58
2021/07/18 00:07:49;;;;;;;4.28;3.03;;;;;;;26.29;34.73;98065.25;5022985;28;20103;-59
2021/07/18 00:10:16;;;;;;;5.07;3.13;;;;;;;26.19;35.15;98060.66;5019123;28;20057;-60
2021/07/18 00:12:41;;;;;;;5.97;3.40;;;;;;;26.17;35.29;98068.13;5016255;28;20092;-60
2021/07/18 00:15:12;;;;;;;4.53;3.17;;;;;;;26.11;35.81;98068.38;5024591;28;20029;-59
2021/07/18 00:17:38;;;;;;;5.07;3.08;;;;;;;25.94;36.37;98064.03;5030527;28;20037;-60
2021/07/18 00:20:09;;;;;;;6.30;3.88;;;;;;;26.13;35.42;98072.38;5020037;28;20033;-61
2021/07/18 00:22:35;;;;;;;5.63;3.92;;;;;;;26.14;35.41;98060.66;5020061;28;20112;-58
2021/07/18 00:25:00;;;;;;;6.28;5.68;;;;;;;26.08;35.29;98070.50;5030789;28;20034;-62
2021/07/18 00:27:26;;;;;;;5.07;2.95;;;;;;;26.04;35.23;98064.06;5019506;28;20037;-60
2021/07/18 00:29:51;;;;;;;5.03;3.03;;;;;;;26.06;35.42;98064.59;5016729;28;20468;-59
2021/07/18 00:32:16;;;;;;;5.85;3.40;;;;;;;26.07;35.50;98060.09;5013260;28;20465;-60
2021/07/18 00:34:42;;;;;;;6.53;3.20;;;;;;;26.00;35.80;98056.84;5009106;28;20120;-59
2021/07/18 00:37:07;;;;;;;6.28;3.63;;;;;;;25.80;36.01;98045.00;5018711;28;20030;-59
2021/07/18 00:39:33;;;;;;;4.95;2.92;;;;;;;25.79;36.63;98046.06;5020111;28;20053;-60
2021/07/18 00:41:58;;;;;;;4.95;3.30;;;;;;;25.79;36.29;98048.72;5017976;28;20060;-59
2021/07/18 00:44:23;;;;;;;5.00;3.38;;;;;;;25.89;35.64;98043.44;5020809;28;20100;-60
2021/07/18 00:46:49;;;;;;;4.75;2.97;;;;;;;25.94;36.05;98041.91;5019507;28;20032;-60
2021/07/18 00:49:14;;;;;;;5.03;2.63;;;;;;;25.70;37.58;98015.63;5015075;28;20540;-61
2021/07/18 00:51:40;;;;;;;4.45;3.15;;;;;;;25.69;37.17;98033.47;5033536;28;20021;-60
2021/07/18 00:54:05;;;;;;;3.88;2.58;;;;;;;25.55;36.55;98003.03;5010850;28;20096;-60
2021/07/18 00:56:31;;;;;;;6.10;3.20;;;;;;;25.80;36.37;98025.56;5036078;28;20435;-60
2021/07/18 00:58:58;;;;;;;5.78;3.30;;;;;;;25.87;35.78;98034.13;5019789;28;20026;-60
2021/07/18 01:01:23;;;;;;;4.13;3.10;;;;;;;25.75;36.52;98025.53;5019036;28;20809;-60
2021/07/18 01:03:49;;;;;;;5.13;3.10;;;;;;;25.58;37.48;98031.81;5016359;28;20025;-61
2021/07/18 01:06:14;;;;;;;4.82;3.58;;;;;;;25.56;37.13;98028.63;5020009;28;20022;-59
2021/07/18 01:08:40;;;;;;;5.25;2.90;;;;;;;25.22;39.39;97999.59;5019616;28;20077;-60
2021/07/18 01:11:05;;;;;;;4.35;2.78;;;;;;;25.05;40.21;97997.06;5013000;28;20041;-60
2021/07/18 01:13:30;;;;;;;4.88;2.72;;;;;;;25.06;39.88;98016.50;5020932;28;20491;-59
2021/07/18 01:15:56;;;;;;;4.88;2.63;;;;;;;24.71;40.98;97991.97;5021469;28;20025;-59
2021/07/18 01:18:22;;;;;;;5.45;2.20;;;;;;;24.80;41.74;98045.50;5032902;28;20478;-60
2021/07/18 01:20:48;;;;;;;5.07;2.10;;;;;;;24.46;41.88;98002.34;5033270;28;20462;-60
2021/07/18 01:23:14;;;;;;;6.97;2.55;;;;;;;24.54;41.82;98023.19;5031541;28;20241;-60
2021/07/18 01:25:39;;;;;;;4.65;2.10;;;;;;;24.46;41.93;98028.91;5018250;28;20026;-59
2021/07/18 01:28:09;;;;;;;5.90;2.60;;;;;;;24.42;40.82;98017.97;5013253;28;20375;-59
2021/07/18 01:30:35;;;;;;;4.43;2.00;;;;;;;24.56;40.93;98027.19;5018616;28;20132;-59
2021/07/18 01:33:00;;;;;;;4.38;2.42;;;;;;;24.52;40.76;98023.44;5021344;28;20503;-60
2021/07/18 01:35:27;;;;;;;4.68;2.25;;;;;;;24.60;40.50;98026.69;5021946;28;20087;-58
2021/07/18 01:37:52;;;;;;;5.18;2.00;;;;;;;24.62;40.71;98013.97;5027323;28;20108;-59
2021/07/18 01:40:18;;;;;;;6.43;2.38;;;;;;;24.63;40.36;98011.06;5037093;28;20030;-60
2021/07/18 01:42:43;;;;;;;4.70;2.60;;;;;;;24.71;39.72;98009.81;5026179;28;20056;-60
2021/07/18 01:45:09;;;;;;;4.30;2.30;;;;;;;24.77;40.26;97998.19;5013565;28;20018;-58
2021/07/18 01:47:35;;;;;;;4.90;2.40;;;;;;;24.71;39.90;97999.97;5019426;28;20072;-58
2021/07/18 01:50:00;;;;;;;7.45;2.55;;;;;;;24.52;39.92;97964.16;5017846;28;20025;-59
2021/07/18 01:52:26;;;;;;;4.40;2.42;;;;;;;24.78;40.03;98005.09;5015158;28;20045;-59
2021/07/18 01:54:54;;;;;;;4.95;2.70;;;;;;;24.69;40.25;97996.75;5023505;28;20025;-59
2021/07/18 01:57:20;;;;;;;4.22;2.10;;;;;;;24.66;40.25;97997.28;5020142;28;20108;-60
2021/07/18 01:59:45;;;;;;;5.22;2.38;;;;;;;24.49;40.59;97962.78;5039358;28;20067;-60
2021/07/18 02:02:12;;;;;;;5.30;2.55;;;;;;;24.53;39.77;97963.09;5030236;28;20030;-60
2021/07/18 02:04:37;;;;;;;5.32;2.38;;;;;;;24.81;39.36;97983.31;5023592;28;20060;-59
2021/07/18 02:07:04;;;;;;;5.93;3.33;;;;;;;25.00;38.37;97986.41;5018946;28;20599;-60
2021/07/18 02:09:29;;;;;;;6.15;4.30;;;;;;;25.23;36.96;97992.44;5010392;28;20025;-60
2021/07/18 02:11:54;;;;;;;6.03;3.90;;;;;;;25.44;36.77;97994.19;5018092;28;20060;-60
2021/07/18 02:14:20;;;;;;;9.18;2.90;;;;;;;25.28;38.26;97995.97;5018148;28;20329;-60
2021/07/18 02:16:45;;;;;;;5.30;2.75;;;;;;;24.97;38.94;97988.75;5023316;28;20164;-58
2021/07/18 02:19:11;;;;;;;8.43;7.63;;;;;;;24.97;38.32;97991.41;5012783;28;20064;-60
2021/07/18 02:21:39;;;;;;;6.45;2.72;;;;;;;24.78;38.35;97954.56;5017407;28;20025;-59
2021/07/18 02:24:05;;;;;;;5.53;3.03;;;;;;;24.92;38.77;97992.19;5006137;28;20026;-60
2021/07/18 02:26:30;;;;;;;5.95;3.70;;;;;;;25.10;38.15;97999.00;5018830;28;20429;-60
2021/07/18 02:28:57;;;;;;;4.85;3.10;;;;;;;24.95;37.48;97951.78;5022749;28;20518;-59
2021/07/18 02:31:23;;;;;;;5.10;3.28;;;;;;;25.23;37.49;97995.09;5023248;28;20033;-58
2021/07/18 02:33:48;;;;;;;5.90;3.90;;;;;;;25.17;37.46;98006.75;5023376;28;20076;-60
2021/07/18 02:36:14;;;;;;;8.80;3.53;;;;;;;25.28;37.56;98011.09;5037113;28;20116;-59
2021/07/18 02:38:39;;;;;;;7.15;4.72;;;;;;;25.22;37.54;98018.22;5023776;28;20637;-59
2021/07/18 02:41:04;;;;;;;5.97;3.17;;;;;;;25.37;36.88;98006.91;5013495;28;20034;-60
2021/07/18 02:43:30;;;;;;;4.57;3.85;;;;;;;25.26;37.91;98005.25;5022816;28;20028;-60
2021/07/18 02:45:55;;;;;;;4.97;3.40;;;;;;;25.30;37.11;97998.38;5022121;28;20440;-60
2021/07/18 02:48:21;;;;;;;5.78;4.03;;;;;;;25.09;37.59;97955.63;5022635;28;20037;-60
2021/07/18 02:50:46;;;;;;;5.68;3.15;;;;;;;25.22;37.56;97996.94;5024208;28;20044;-60
2021/07/18 02:53:12;;;;;;;6.18;2.47;;;;;;;24.78;38.94;97959.88;5020681;28;20473;-59
2021/07/18 02:55:37;;;;;;;4.72;2.95;;;;;;;24.69;40.35;97985.31;5020871;28;20029;-59
2021/07/18 02:58:03;;;;;;;6.68;5.55;;;;;;;24.64;40.07;97991.41;5010843;28;20029;-59
2021/07/18 03:00:28;;;;;;;4.95;3.38;;;;;;;24.51;40.73;97979.28;5019649;28;20041;-60
2021/07/18 03:02:53;;;;;;;5.97;5.32;;;;;;;24.34;42.84;98013.09;5013178;28;20034;-61
2021/07/18 03:05:19;;;;;;;7.40;4.57;;;;;;;24.02;44.18;98003.16;5019911;28;20583;-60
2021/07/18 03:07:46;;;;;;;5.15;3.47;;;;;;;24.02;43.98;98003.16;5017470;28;20037;-60
2021/07/18 03:10:13;;;;;;;8.70;5.55;;;;;;;24.14;43.50;97995.09;5020537;28;20120;-60
2021/07/18 03:12:39;;;;;;;5.15;2.75;;;;;;;24.19;43.38;97995.16;5020588;28;20095;-60
2021/07/18 03:15:06;;;;;;;5.50;2.97;;;;;;;24.04;43.49;97963.09;5012519;28;20037;-59
2021/07/18 03:17:32;;;;;;;6.13;2.78;;;;;;;24.29;43.11;98002.41;5022336;28;20101;-60
2021/07/18 03:20:02;;;;;;;8.15;7.47;;;;;;;24.36;42.49;98000.38;5018485;28;20079;-60
2021/07/18 03:22:27;;;;;;;7.53;6.43;;;;;;;24.40;42.91;98001.47;5020199;28;20084;-60
2021/07/18 03:24:53;;;;;;;6.53;2.95;;;;;;;24.34;42.91;97984.69;5021166;28;20125;-60
2021/07/18 03:27:18;;;;;;;6.68;4.93;;;;;;;24.38;43.21;98003.59;5014532;28;20030;-60
2021/07/18 03:29:44;;;;;;;5.30;2.45;;;;;;;24.32;43.08;97984.13;5014521;28;20025;-61
2021/07/18 03:32:09;;;;;;;6.72;4.40;;;;;;;24.27;41.28;97952.19;5038017;28;20026;-60
2021/07/18 03:34:34;;;;;;;4.63;2.78;;;;;;;24.60;42.16;97997.47;5017453;28;20033;-60
2021/07/18 03:37:00;;;;;;;5.35;2.83;;;;;;;24.63;41.59;98012.91;5019975;28;20028;-61
2021/07/18 03:39:25;;;;;;;7.85;4.20;;;;;;;24.63;41.31;98000.44;5020768;28;20029;-60
2021/07/18 03:41:50;;;;;;;9.18;7.90;;;;;;;24.67;41.64;98001.53;5022138;28;20032;-59
2021/07/18 03:44:16;;;;;;;5.85;4.38;;;;;;;24.61;41.60;97986.59;5018466;28;20060;-59
2021/07/18 03:46:41;;;;;;;5.63;2.47;;;;;;;24.67;41.89;98006.84;5017578;28;20033;-60
2021/07/18 03:49:07;;;;;;;5.30;3.17;;;;;;;24.54;42.04;97993.97;5020366;28;20468;-60
2021/07/18 03:51:32;;;;;;;5.20;2.63;;;;;;;24.72;41.25;98004.22;5013503;28;20632;-60
2021/07/18 03:53:58;;;;;;;10.27;9.48;;;;;;;24.72;40.62;97996.25;5032219;28;21379;-60
2021/07/18 03:56:23;;;;;;;5.03;2.80;;;;;;;24.75;40.58;97984.31;5020008;28;20057;-60
2021/07/18 03:58:50;;;;;;;5.22;3.10;;;;;;;24.79;39.48;97964.16;5020345;28;20036;-61
2021/07/18 04:01:15;;;;;;;4.85;2.95;;;;;;;25.06;39.33;97996.03;5015171;28;20861;-60
2021/07/18 04:03:41;;;;;;;6.78;3.10;;;;;;;24.79;39.73;97968.66;5021983;28;20033;-59
2021/07/18 04:06:07;;;;;;;5.70;4.55;;;;;;;25.10;39.05;97991.81;5012388;28;20021;-59
2021/07/18 04:08:32;;;;;;;5.25;2.80;;;;;;;25.07;39.02;97994.97;5022657;28;20033;-59
2021/07/18 04:10:57;;;;;;;5.88;3.33;;;;;;;25.11;39.15;97995.25;5020286;28;20104;-60
2021/07/18 04:13:23;;;;;;;5.45;3.10;;;;;;;24.57;39.60;97937.66;5016445;28;20025;-60
2021/07/18 04:15:48;;;;;;;6.40;3.75;;;;;;;24.96;39.63;97981.84;5020277;28;20136;-60
2021/07/18 04:18:14;;;;;;;5.38;3.20;;;;;;;24.99;39.61;97999.94;5035043;28;20021;-59
2021/07/18 04:20:39;;;;;;;5.35;3.00;;;;;;;25.06;39.61;98004.00;5021597;28;20781;-60
2021/07/18 04:23:06;;;;;;;6.75;3.30;;;;;;;25.01;40.30;97998.66;5017767;28;20037;-59
2021/07/18 04:25:31;;;;;;;5.07;3.03;;;;;;;24.84;41.01;98000.63;5021354;28;20054;-59
2021/07/18 04:27:57;;;;;;;6.63;4.60;;;;;;;24.77;41.58;97997.34;5012083;28;20037;-61
2021/07/18 04:30:22;;;;;;;10.40;9.38;;;;;;;24.83;41.60;98007.78;5005789;28;20104;-60
2021/07/18 04:32:48;;;;;;;6.10;3.03;;;;;;;24.60;44.28;98016.88;5033730;28;20021;-60
2021/07/18 04:35:14;;;;;;;5.00;2.33;;;;;;;24.06;45.52;97982.22;5024751;28;20111;-60
2021/07/18 04:37:40;;;;;;;5.05;3.28;;;;;;;24.20;45.49;98025.16;5005392;28;20129;-60
2021/07/18 04:40:06;;;;;;;4.90;2.88;;;;;;;24.24;45.34;98016.47;5019299;28;20838;-59
2021/07/18 04:42:32;;;;;;;7.20;5.30;;;;;;;24.15;46.08;98015.28;5036896;28;20036;-60
2021/07/18 04:44:58;;;;;;;5.72;3.65;;;;;;;24.18;47.01;98018.22;5014050;28;20372;-60
2021/07/18 04:47:23;;;;;;;6.88;6.22;;;;;;;24.16;46.77;98022.19;5017449;28;20030;-60
2021/07/18 04:49:50;;;;;;;4.90;2.33;;;;;;;23.92;48.35;98032.25;5032472;28;20530;-60
2021/07/18 04:52:17;;;;;;;8.50;7.28;;;;;;;23.83;48.72;98039.81;5035746;28;20026;-60
2021/07/18 04:54:42;;;;;;;5.25;2.72;;;;;;;23.93;47.51;98017.91;5017953;28;20143;-61
2021/07/18 04:57:08;;;;;;;5.85;2.30;;;;;;;24.13;46.79;98018.19;5017854;28;20037;-60
2021/07/18 04:59:33;;;;;;;5.68;2.92;;;;;;;24.25;45.82;98026.03;5020447;28;20034;-60
2021/07/18 05:01:58;;;;;;;5.18;3.15;;;;;;;24.44;44.75;98023.03;5021385;28;20043;-60
2021/07/18 05:04:24;;;;;;;12.95;11.95;;;;;;;24.60;44.36;98029.34;5016103;28;20397;-60
2021/07/18 05:06:49;;;;;;;5.82;2.40;;;;;;;24.41;45.38;98024.34;5039804;28;20060;-60
2021/07/18 05:09:14;;;;;;;4.63;2.38;;;;;;;24.51;44.69;98037.72;5023244;28;20104;-60
2021/07/18 05:11:40;;;;;;;5.07;2.33;;;;;;;24.58;42.96;98000.38;5021148;28;20099;-61
2021/07/18 05:14:06;;;;;;;6.18;2.60;;;;;;;25.05;41.11;98042.28;5037353;28;20590;-59
2021/07/18 05:16:31;;;;;;;5.68;2.53;;;;;;;25.10;40.99;98042.34;5024312;28;20030;-60
2021/07/18 05:18:57;;;;;;;4.38;2.63;;;;;;;25.07;40.42;98005.59;5017762;28;20029;-60
2021/07/18 05:21:22;;;;;;;5.15;2.42;;;;;;;25.09;43.64;98051.38;5030920;28;20044;-60
2021/07/18 05:23:47;;;;;;;6.07;2.30;;;;;;;24.75;44.97;98026.84;5022605;28;20593;-61
2021/07/18 05:26:13;;;;;;;5.72;2.50;;;;;;;24.69;46.07;98049.91;5018713;28;20041;-60
2021/07/18 05:28:38;;;;;;;6.75;2.80;;;;;;;24.42;47.25;98044.53;5025858;28;20133;-61
2021/07/18 05:31:04;;;;;;;5.00;2.42;;;;;;;24.21;47.26;98029.44;5020500;28;20064;-61
2021/07/18 05:33:29;;;;;;;5.63;2.40;;;;;;;24.16;47.07;98020.34;5036371;28;20479;-61
2021/07/18 05:35:55;;;;;;;5.93;2.30;;;;;;;24.47;47.51;98052.56;5019111;28;20030;-62
2021/07/18 05:38:20;;;;;;;5.00;2.65;;;;;;;24.34;48.08;98048.44;5019888;28;20029;-61
2021/07/18 05:40:45;;;;;;;7.20;2.95;;;;;;;24.12;49.04;98035.16;5037727;28;20041;-62
2021/07/18 05:43:11;;;;;;;5.20;2.67;;;;;;;23.95;49.16;98018.50;5017648;28;20101;-61
2021/07/18 05:45:36;;;;;;;4.85;2.85;;;;;;;24.01;49.94;98056.53;5024758;28;20736;-60
2021/07/18 05:48:02;;;;;;;4.40;2.60;;;;;;;24.05;49.69;98061.09;5020657;28;20033;-61
2021/07/18 05:50:27;;;;;;;5.57;2.80;;;;;;;24.04;50.58;98066.63;5024856;28;20387;-61
2021/07/18 05:52:53;;;;;;;5.32;2.72;;;;;;;24.01;50.55;98072.47;5023306;28;20492;-61
2021/07/18 05:55:18;;;;;;;5.13;3.05;;;;;;;24.22;50.42;98070.88;5021290;28;20040;-61
2021/07/18 05:57:43;;;;;;;6.50;3.17;;;;;;;23.87;51.60;98080.75;5022067;28;20028;-61
2021/07/18 06:00:11;;;;;;;5.15;2.90;;;;;;;23.75;51.89;98074.72;5021183;28;20112;-60
2021/07/18 06:02:36;;;;;;;6.40;2.95;;;;;;;23.73;52.83;98079.44;5018905;28;20085;-60
2021/07/18 06:05:03;;;;;;;5.32;2.60;;;;;;;23.83;52.33;98089.47;5018298;28;20034;-60
2021/07/18 06:07:28;;;;;;;5.32;2.40;;;;;;;23.67;52.78;98080.44;5032193;28;20068;-59
2021/07/18 06:09:54;;;;;;;6.05;3.08;;;;;;;23.76;52.67;98085.06;5011238;28;20127;-60
2021/07/18 06:12:19;;;;;;;6.63;2.78;;;;;;;23.78;52.77;98084.84;5018144;28;20511;-62
2021/07/18 06:14:44;;;;;;;5.20;2.72;;;;;;;23.78;52.73;98087.50;5021466;28;20055;-61
2021/07/18 06:17:11;;;;;;;6.03;2.45;;;;;;;23.69;53.08;98088.94;5039903;28;20025;-60
2021/07/18 06:19:37;;;;;;;7.47;2.70;;;;;;;23.89;53.04;98086.63;5019695;28;20351;-59
2021/07/18 06:22:03;;;;;;;6.10;3.08;;;;;;;23.79;53.18;98084.63;5018472;28;20029;-60
2021/07/18 06:24:28;;;;;;;5.75;3.20;;;;;;;23.76;53.65;98078.97;5017536;28;20025;-60
2021/07/18 06:26:53;;;;;;;6.88;3.42;;;;;;;23.51;53.68;98047.53;5013628;28;20026;-60
2021/07/18 06:29:19;;;;;;;7.20;3.35;;;;;;;23.51;53.72;98034.28;5012606;28;20076;-60
2021/07/18 06:31:44;;;;;;;5.20;2.80;;;;;;;23.78;53.42;98082.19;5015983;28;20022;-60
2021/07/18 06:34:10;;;;;;;7.13;2.78;;;;;;;23.60;53.34;98041.59;5025470;28;20083;-60
2021/07/18 06:36:35;;;;;;;6.43;2.83;;;;;;;23.92;53.40;98090.66;5017848;28;20384;-62
2021/07/18 06:39:01;;;;;;;6.90;3.22;;;;;;;23.85;52.90;98074.88;5024937;28;20025;-61
2021/07/18 06:41:27;;;;;;;7.78;2.90;;;;;;;23.78;53.16;98053.00;5022589;28;20491;-60
2021/07/18 06:43:52;;;;;;;5.70;3.00;;;;;;;24.03;53.08;98071.16;5015923;28;20065;-60
2021/07/18 06:46:18;;;;;;;5.82;2.95;;;;;;;24.16;52.96;98072.66;5022866;28;20026;-59
2021/07/18 06:48:43;;;;;;;7.30;3.35;;;;;;;24.13;53.37;98073.97;5017684;28;20553;-61
2021/07/18 06:51:08;;;;;;;7.28;3.40;;;;;;;24.09;53.24;98058.75;5023483;28;20380;-60
2021/07/18 06:53:34;;;;;;;5.65;3.10;;;;;;;24.30;52.84;98086.38;5018883;28;20033;-60
2021/07/18 06:55:59;;;;;;;4.80;2.65;;;;;;;24.42;53.13;98078.28;5022916;28;20103;-61
2021/07/18 06:58:25;;;;;;;6.05;2.90;;;;;;;24.44;53.16;98077.00;5020983;28;20022;-60
2021/07/18 07:00:51;;;;;;;5.95;2.83;;;;;;;24.52;53.10;98075.75;5020851;28;20114;-60
2021/07/18 07:03:17;;;;;;;6.72;3.15;;;;;;;24.45;53.07;98073.28;5035675;28;20208;-60
2021/07/18 07:05:42;;;;;;;7.05;3.15;;;;;;;24.36;53.95;98041.03;5014138;28;20030;-60
2021/07/18 07:08:08;;;;;;;6.57;3.47;;;;;;;24.51;53.78;98052.88;5024699;28;20044;-59
2021/07/18 07:10:33;;;;;;;5.78;3.15;;;;;;;24.62;54.46;98065.25;5022065;28;20025;-59
2021/07/18 07:12:59;;;;;;;8.45;3.70;;;;;;;24.64;53.62;98067.66;5017023;28;20573;-60
2021/07/18 07:15:24;;;;;;;5.22;3.00;;;;;;;24.35;52.67;98031.47;5020331;28;20021;-60
2021/07/18 07:17:50;;;;;;;7.28;3.38;;;;;;;24.73;52.64;98061.69;5011754;28;20022;-60
2021/07/18 07:20:15;;;;;;;7.63;4.07;;;;;;;24.59;52.85;98033.88;5033168;28;20103;-60
2021/07/18 07:22:41;;;;;;;6.95;4.13;;;;;;;24.75;52.17;98043.63;5036126;28;20559;-60
2021/07/18 07:25:08;;;;;;;6.18;3.60;;;;;;;24.87;53.28;98058.59;5020534;28;20116;-59
2021/07/18 07:27:34;;;;;;;6.63;3.55;;;;;;;24.93;53.96;98061.06;5021868;28;20041;-60
2021/07/18 07:30:00;;;;;;;6.18;3.60;;;;;;;24.99;52.99;98048.63;5020202;28;20072;-60
2021/07/18 07:32:25;;;;;;;5.50;3.60;;;;;;;24.79;52.97;98016.50;5018212;28;20037;-60
2021/07/18 07:34:51;;;;;;;6.65;4.05;;;;;;;25.11;51.64;98051.91;5026819;28;20540;-59
2021/07/18 07:37:16;;;;;;;5.93;3.88;;;;;;;24.96;52.40;98041.16;5020655;28;20037;-60
2021/07/18 07:39:41;;;;;;;6.63;3.88;;;;;;;25.04;53.57;98053.97;5019580;28;20831;-60
2021/07/18 07:42:08;;;;;;;6.60;4.28;;;;;;;25.09;51.95;98050.56;5017305;28;20030;-60
2021/07/18 07:44:33;;;;;;;7.25;4.20;;;;;;;25.09;52.85;98046.03;5020458;28;20940;-59
2021/07/18 07:46:59;;;;;;;6.70;3.90;;;;;;;24.97;54.42;98049.91;5013489;28;20026;-60
2021/07/18 07:49:24;;;;;;;7.10;3.78;;;;;;;24.85;54.10;98045.56;5020031;28;20044;-60
2021/07/18 07:51:50;;;;;;;6.78;3.90;;;;;;;24.89;54.41;98022.72;5018327;28;20033;-60
2021/07/18 07:54:15;;;;;;;6.47;3.83;;;;;;;24.87;53.38;98011.53;5014211;28;20025;-60
2021/07/18 07:56:41;;;;;;;10.50;4.35;;;;;;;25.02;54.40;98047.31;5022090;28;20030;-59
2021/07/18 07:59:06;;;;;;;5.93;4.10;;;;;;;25.00;54.48;98047.56;5022330;28;20431;-59
2021/07/18 08:01:31;;;;;;;6.47;4.55;;;;;;;24.81;54.61;98043.66;5015788;28;20037;-60
2021/07/18 08:03:57;;;;;;;7.20;4.15;;;;;;;24.86;54.60;98047.19;5022834;28;20626;-60
2021/07/18 08:06:22;;;;;;;8.80;5.10;;;;;;;24.93;53.92;98039.81;5014484;28;20029;-59
2021/07/18 08:08:47;;;;;;;7.30;4.72;;;;;;;24.79;53.94;98009.34;5019765;28;20317;-59
2021/07/18 08:11:13;;;;;;;6.45;4.30;;;;;;;25.00;54.17;98038.78;5018752;28;20552;-59
2021/07/18 08:13:38;;;;;;;8.80;4.82;;;;;;;25.03;54.05;98031.09;5017892;28;20029;-60
2021/07/18 08:16:04;;;;;;;8.10;5.03;;;;;;;24.88;54.02;98037.09;5037556;28;20392;-59
2021/07/18 08:18:30;;;;;;;8.45;5.15;;;;;;;25.08;53.69;98039.13;5020431;28;20104;-59
2021/07/18 08:20:55;;;;;;;7.00;4.75;;;;;;;25.09;53.01;98018.66;5022351;28;20095;-59
2021/07/18 08:23:21;;;;;;;8.35;5.07;;;;;;;25.29;53.26;98032.13;5010248;28;20550;-59
2021/07/18 08:25:46;;;;;;;9.52;5.20;;;;;;;24.96;53.64;97998.59;5035966;28;20037;-60
2021/07/18 08:28:12;;;;;;;8.40;4.22;;;;;;;25.10;55.31;98031.69;5034402;28;20168;-58
2021/07/18 08:30:38;;;;;;;7.43;4.50;;;;;;;25.19;53.83;98032.03;5019905;28;20373;-60
2021/07/18 08:33:04;;;;;;;7.60;4.82;;;;;;;25.23;54.05;98027.03;5012037;28;20156;-59
2021/07/18 08:35:29;;;;;;;6.68;4.75;;;;;;;25.27;53.52;98033.47;5016837;28;20099;-59
2021/07/18 08:37:55;;;;;;;6.32;4.95;;;;;;;25.39;53.40;98017.31;5022813;28;20030;-58
2021/07/18 08:40:20;;;;;;;8.73;4.72;;;;;;;25.48;53.18;98027.25;5016810;28;20033;-60
2021/07/18 08:42:45;;;;;;;6.05;4.63;;;;;;;25.63;52.44;98018.53;5022109;28;20057;-60
2021/07/18 08:45:12;;;;;;;6.13;4.68;;;;;;;25.51;53.42;98001.97;5018453;28;20033;-59
2021/07/18 08:47:38;;;;;;;7.93;4.40;;;;;;;25.53;53.17;97999.84;5018499;28;20110;-60
2021/07/18 08:50:05;;;;;;;7.32;5.18;;;;;;;25.94;53.15;98023.25;5015983;28;20102;-59
2021/07/18 08:52:30;;;;;;;7.38;4.13;;;;;;;26.30;52.50;98023.41;5031297;28;20033;-62
2021/07/18 08:54:56;;;;;;;5.60;4.30;;;;;;;26.92;50.38;98025.16;5035263;28;20036;-60
2021/07/18 08:57:23;;;;;;;5.50;3.92;;;;;;;26.66;50.26;98022.47;5015856;28;20047;-59
2021/07/18 08:59:49;;;;;;;6.78;3.88;;;;;;;26.60;50.95;98020.88;5012577;28;20034;-60
2021/07/18 09:02:15;;;;;;;6.05;3.92;;;;;;;26.45;50.79;98010.94;5018871;28;20037;-59
2021/07/18 09:04:41;;;;;;;6.55;4.38;;;;;;;26.63;51.21;98017.69;5018590;28;20755;-61
2021/07/18 09:07:11;;;;;;;6.20;4.20;;;;;;;26.59;51.23;98013.88;5014957;28;20030;-60
2021/07/18 09:09:36;;;;;;;5.68;4.35;;;;;;;26.56;51.18;98014.44;5017261;28;20043;-59
2021/07/18 09:12:07;;;;;;;7.57;3.83;;;;;;;26.82;51.15;98011.84;5020369;28;20451;-59
2021/07/18 09:14:40;;;;;;;8.10;4.40;;;;;;;26.93;49.71;98010.00;5014061;28;20029;-60
2021/07/18 09:17:11;;;;;;;7.25;5.05;;;;;;;26.69;51.03;97983.00;5016216;28;20029;-60
2021/07/18 09:19:38;;;;;;;7.03;4.78;;;;;;;26.55;50.22;97980.84;5013922;28;20034;-59
2021/07/18 09:22:03;;;;;;;6.03;4.25;;;;;;;26.86;50.59;98015.56;5018471;28;20384;-62
2021/07/18 09:24:33;;;;;;;6.20;4.40;;;;;;;27.03;50.41;98013.47;5026012;28;20028;-62
2021/07/18 09:27:15;;;;;;;5.85;4.45;;;;;;;27.13;50.63;98015.31;5019001;28;20287;-62
2021/07/18 09:29:49;;;;;;;6.75;4.50;;;;;;;27.10;50.75;98005.19;5017030;28;20038;-62
2021/07/18 09:32:26;;;;;;;9.48;4.50;;;;;;;27.38;49.29;98000.38;5031611;28;20132;-62
2021/07/18 09:35:05;;;;;;;6.35;4.30;;;;;;;27.72;48.83;98005.91;5029233;28;20049;-63
2021/07/18 09:37:32;;;;;;;;;;;;;;;27.78;48.59;97996.84;5019529;28;20025;-62
2021/07/18 09:39:59;;;;;;;5.90;4.60;;;;;;;27.77;47.79;97960.50;5032462;28;20323;-62
2021/07/18 09:42:30;;;;;;;6.70;4.28;;;;;;;27.88;47.54;97995.22;5014861;28;20076;-63
2021/07/18 09:44:55;;;;;;;7.45;4.82;;;;;;;28.14;47.50;97990.59;5018171;28;20500;-62
2021/07/18 09:47:21;;;;;;;6.50;4.55;;;;;;;28.12;47.01;97992.72;5033334;28;20121;-63
2021/07/18 09:49:48;;;;;;;6.95;4.85;;;;;;;28.08;47.28;97991.69;5018869;28;20090;-62
2021/07/18 09:52:15;;;;;;;6.47;4.97;;;;;;;28.22;47.36;97983.84;5021861;28;20025;-63
2021/07/18 09:54:40;;;;;;;6.22;5.32;;;;;;;28.29;45.22;97979.81;5017509;28;20069;-63
2021/07/18 09:57:09;;;;;;;7.25;4.88;;;;;;;28.42;45.34;97981.09;5015015;28;20119;-63
2021/07/18 09:59:36;;;;;;;6.05;5.05;;;;;;;28.51;44.87;97957.22;5024117;28;20049;-61
2021/07/18 10:02:03;;;;;;;5.88;5.28;;;;;;;28.81;44.17;97980.31;5021179;28;20086;-61
2021/07/18 10:04:30;;;;;;;6.47;4.90;;;;;;;28.40;44.77;97919.06;5036908;28;20035;-62
2021/07/18 10:07:09;;;;;;;7.05;5.45;;;;;;;28.38;44.19;97950.63;5037457;28;20083;-63
2021/07/18 10:09:35;;;;;;;5.80;4.88;;;;;;;28.49;45.36;97970.06;5022470;28;20025;-62
2021/07/18 10:12:00;;;;;;;6.50;5.05;;;;;;;28.48;45.64;97974.63;5037671;28;20134;-61
2021/07/18 10:14:26;;;;;;;7.25;5.47;;;;;;;28.35;44.89;97969.91;5018782;28;20032;-63
2021/07/18 10:16:53;;;;;;;6.13;5.30;;;;;;;28.28;44.91;97969.41;5013847;28;20117;-62
2021/07/18 10:19:19;;;;;;;6.28;5.55;;;;;;;28.11;44.09;97967.88;5020451;28;20045;-62
2021/07/18 10:21:45;;;;;;;5.78;4.93;;;;;;;28.09;44.77;97964.69;5014390;28;20332;-61
2021/07/18 10:24:12;;;;;;;5.63;5.05;;;;;;;28.15;45.75;97976.94;5020403;28;20025;-63
2021/07/18 10:26:38;;;;;;;6.70;5.43;;;;;;;28.18;45.93;97973.75;5020012;28;20030;-63
2021/07/18 10:29:04;;;;;;;6.30;5.53;;;;;;;28.32;44.65;97978.47;5036560;28;20132;-62
2021/07/18 10:31:48;;;;;;;5.65;5.05;;;;;;;28.43;44.56;97971.19;5035689;28;20112;-62
2021/07/18 10:34:14;;;;;;;5.60;4.65;;;;;;;28.51;44.26;97968.75;5029644;28;20037;-63
2021/07/18 10:36:40;;;;;;;7.95;5.78;;;;;;;28.48;44.04;97963.16;5030888;28;20502;-62
2021/07/18 10:39:37;;;;;;;7.65;7.03;;;;;;;28.53;41.81;97965.78;5033876;28;20502;-63
2021/07/18 10:42:04;;;;;;;8.02;7.28;;;;;;;28.55;41.40;97950.28;5037257;28;20022;-63
2021/07/18 10:44:38;;;;;;;8.30;7.60;;;;;;;28.45;41.60;97929.72;5018600;28;20484;-63
2021/07/18 10:47:05;;;;;;;9.30;7.68;;;;;;;28.69;41.61;97956.59;5034413;28;20037;-63
2021/07/18 10:49:53;;;;;;;11.57;10.65;;;;;;;28.66;40.26;97959.84;5016045;28;20096;-62
2021/07/18 10:52:21;;;;;;;15.60;14.50;;;;;;;28.71;39.09;97953.63;5035669;28;20023;-62
2021/07/18 10:54:47;;;;;;;13.07;12.18;;;;;;;28.71;40.31;97953.63;5020356;28;20045;-61
2021/07/18 10:57:29;;;;;;;13.20;12.30;;;;;;;28.99;38.01;97953.94;5032394;28;20030;-63
2021/07/18 10:59:56;;;;;;;15.88;14.80;;;;;;;29.07;37.80;97953.34;5020741;28;20105;-63
2021/07/18 11:02:33;;;;;;;15.85;14.85;;;;;;;29.08;32.93;97922.84;5024588;28;20037;-61
2021/07/18 11:05:01;;;;;;;15.75;14.73;;;;;;;29.33;36.14;97953.94;5011181;28;20018;-63
2021/07/18 11:07:28;;;;;;;16.05;15.05;;;;;;;29.28;34.36;97925.34;5020659;28;20421;-64
2021/07/18 11:10:09;;;;;;;16.33;15.07;;;;;;;29.54;34.40;97948.38;5025591;28;20611;-65
2021/07/18 11:12:37;;;;;;;15.43;14.43;;;;;;;29.58;33.90;97952.06;5009832;28;20037;-63
2021/07/18 11:15:34;;;;;;;16.70;15.65;;;;;;;29.78;33.77;97948.41;5013016;28;20659;-63
2021/07/18 11:17:59;;;;;;;15.23;14.32;;;;;;;29.98;32.91;97948.13;5014861;28;20035;-63
2021/07/18 11:20:47;;;;;;;18.77;17.67;;;;;;;30.39;31.74;97946.81;5022046;28;20029;-61
2021/07/18 11:23:19;;;;;;;22.42;21.02;;;;;;;30.54;30.76;97951.94;5013184;28;20036;-63
2021/07/18 11:25:50;;;;;;;18.92;17.83;;;;;;;30.47;32.95;97944.25;5013280;28;20083;-63
2021/07/18 11:28:35;;;;;;;21.80;20.50;;;;;;;30.25;32.53;97917.22;5026751;28;20041;-63